createdAt,value
2022-09-10T00:04:50.308Z,15.15
2022-09-10T00:09:43.575Z,15.04
2022-09-10T00:14:36.891Z,15.11
2022-09-10T00:19:32.294Z,15.05
2022-09-10T00:24:25.549Z,15.14
2022-09-10T00:29:19.808Z,15.09
2022-09-10T00:34:15.363Z,15.04
2022-09-10T00:39:14.180Z,15.05
2022-09-10T00:44:32.643Z,15.07
2022-09-10T00:49:38.573Z,14.86
2022-09-10T00:54:36.531Z,15.04
2022-09-10T00:59:31.878Z,14.91
2022-09-10T01:04:26.662Z,14.85
2022-09-10T01:09:23.211Z,14.91
2022-09-10T01:15:00.543Z,14.97
2022-09-10T01:20:30.432Z,14.80
2022-09-10T01:25:41.605Z,14.99
2022-09-10T01:30:43.863Z,14.94
2022-09-10T01:35:44.571Z,14.93
2022-09-10T01:40:39.544Z,14.88
2022-09-10T01:45:50.481Z,14.99
2022-09-10T01:50:58.421Z,14.98
2022-09-10T01:56:04.061Z,15.07
2022-09-10T02:01:12.491Z,15.17
2022-09-10T02:06:09.479Z,15.11
2022-09-10T02:11:06.760Z,15.22
2022-09-10T02:16:04.317Z,15.15
2022-09-10T02:21:02.819Z,15.19
2022-09-10T02:25:56.065Z,15.34
2022-09-10T02:30:49.348Z,15.39
2022-09-10T02:35:44.543Z,15.41
2022-09-10T02:40:39.333Z,15.42
2022-09-10T02:45:33.027Z,15.40
2022-09-10T02:50:26.388Z,15.41
2022-09-10T02:55:20.999Z,15.34
2022-09-10T03:00:14.684Z,15.24
2022-09-10T03:05:08.855Z,15.14
2022-09-10T03:10:02.147Z,15.04
2022-09-10T03:14:59.024Z,15.07
2022-09-10T03:20:06.027Z,15.09
2022-09-10T03:25:29.882Z,15.10
2022-09-10T03:30:46.409Z,15.13
2022-09-10T03:35:46.028Z,15.08
2022-09-10T03:40:44.466Z,15.00
2022-09-10T03:45:40.072Z,14.90
2022-09-10T03:50:33.658Z,14.89
2022-09-10T03:55:27.393Z,14.99
2022-09-10T04:00:28.883Z,14.87
2022-09-10T04:05:27.740Z,14.86
2022-09-10T04:10:21.595Z,14.88
2022-09-10T04:15:15.532Z,14.88
2022-09-10T04:20:10.578Z,14.96
2022-09-10T04:25:06.274Z,14.99
2022-09-10T04:29:59.505Z,14.96
2022-09-10T04:34:52.732Z,15.14
2022-09-10T04:39:46.070Z,15.10
2022-09-10T04:44:40.796Z,15.15
2022-09-10T04:49:34.012Z,15.06
2022-09-10T04:54:27.321Z,15.01
2022-09-10T04:59:20.552Z,14.95
2022-09-10T05:04:15.179Z,14.92
2022-09-10T05:09:08.406Z,15.03
2022-09-10T05:14:01.661Z,15.01
2022-09-10T05:18:54.875Z,15.03
2022-09-10T05:23:49.451Z,15.10
2022-09-10T05:28:43.434Z,15.18
2022-09-10T05:33:36.743Z,15.26
2022-09-10T05:38:29.938Z,15.25
2022-09-10T05:43:24.510Z,15.39
2022-09-10T05:48:17.711Z,15.45
2022-09-10T05:53:10.943Z,15.31
2022-09-10T05:58:04.472Z,15.25
2022-09-10T06:03:08.216Z,15.16
2022-09-10T06:08:06.513Z,15.10
2022-09-10T06:13:01.733Z,15.28
2022-09-10T06:17:56.621Z,15.13
2022-09-10T06:22:52.081Z,15.01
2022-09-10T06:27:46.581Z,15.00
2022-09-10T06:32:40.533Z,15.02
2022-09-10T06:37:36.539Z,15.23
2022-09-10T06:42:32.205Z,15.14
2022-09-10T06:52:42.294Z,15.08
2022-09-10T06:57:39.670Z,15.15
2022-09-10T07:02:33.061Z,15.38
2022-09-10T07:07:26.893Z,15.29
2022-09-10T07:12:21.359Z,15.43
2022-09-10T07:17:20.243Z,15.46
2022-09-10T07:22:13.707Z,15.36
2022-09-10T07:27:07.167Z,15.40
2022-09-10T07:32:01.766Z,15.53
2022-09-10T07:36:56.805Z,15.56
2022-09-10T07:41:52.337Z,15.76
2022-09-10T07:46:46.558Z,15.83
2022-09-10T07:51:45.709Z,15.86
2022-09-10T07:56:40.315Z,15.81
2022-09-10T08:01:34.276Z,15.82
2022-09-10T08:06:27.722Z,15.83
2022-09-10T08:11:22.823Z,15.99
2022-09-10T08:16:20.651Z,16.13
2022-09-10T08:21:14.922Z,16.13
2022-09-10T08:26:09.568Z,16.07
2022-09-10T08:31:07.551Z,15.98
2022-09-10T08:36:04.733Z,16.07
2022-09-10T08:41:00.401Z,16.11
2022-09-10T08:45:56.375Z,16.09
2022-09-10T08:50:58.433Z,16.09
2022-09-10T08:55:57.937Z,16.04
2022-09-10T09:00:56.870Z,16.04
2022-09-10T09:05:55.593Z,16.18
2022-09-10T09:10:59.144Z,16.32
2022-09-10T09:16:04.888Z,16.37
2022-09-10T09:21:06.943Z,16.52
2022-09-10T09:26:11.142Z,16.55
2022-09-10T09:31:12.887Z,16.50
2022-09-10T09:36:07.942Z,16.46
2022-09-10T09:41:14.633Z,16.32
2022-09-10T09:46:14.231Z,16.37
2022-09-10T09:51:13.846Z,16.14
2022-09-10T09:56:25.887Z,16.32
2022-09-10T10:01:24.089Z,16.49
2022-09-10T10:06:20.525Z,16.62
2022-09-10T10:11:21.573Z,16.67
2022-09-10T10:16:22.980Z,16.63
2022-09-10T10:21:22.381Z,16.55
2022-09-10T10:26:31.124Z,16.60
2022-09-10T10:31:24.694Z,16.27
2022-09-10T10:36:27.844Z,16.18
2022-09-10T10:41:58.630Z,16.15
2022-09-10T10:47:11.916Z,16.24
2022-09-10T10:52:15.310Z,16.44
2022-09-10T10:57:25.657Z,16.77
2022-09-10T11:02:34.373Z,16.86
2022-09-10T11:07:35.033Z,17.09
2022-09-10T11:12:34.966Z,16.93
2022-09-10T11:17:39.328Z,17.03
2022-09-10T11:22:40.824Z,17.28
2022-09-10T11:27:41.095Z,17.41
2022-09-10T11:32:42.775Z,17.22
2022-09-10T11:37:57.828Z,17.17
2022-09-10T11:42:58.835Z,17.35
2022-09-10T11:48:00.929Z,17.29
2022-09-10T11:52:56.493Z,17.19
2022-09-10T11:58:03.333Z,17.13
2022-09-10T12:03:33.679Z,17.12
2022-09-10T12:08:45.200Z,17.08
2022-09-10T12:13:40.731Z,17.31
2022-09-10T12:18:44.963Z,17.33
2022-09-10T12:23:40.804Z,17.24
2022-09-10T12:29:03.893Z,17.46
2022-09-10T12:34:20.067Z,17.61
2022-09-10T12:39:24.701Z,17.69
2022-09-10T12:44:49.981Z,18.05
2022-09-10T12:49:47.701Z,18.23
2022-09-10T12:54:56.767Z,18.30
2022-09-10T13:00:23.226Z,18.71
2022-09-10T13:05:31.746Z,18.51
2022-09-10T13:10:29.024Z,18.27
2022-09-10T13:15:27.707Z,18.14
2022-09-10T13:20:32.944Z,18.25
2022-09-10T13:25:42.739Z,18.56
2022-09-10T13:30:37.513Z,18.73
2022-09-10T13:36:19.454Z,18.73
2022-09-10T13:42:02.655Z,18.49
2022-09-10T13:47:10.612Z,18.38
2022-09-10T13:52:12.700Z,18.51
2022-09-10T13:57:15.846Z,18.66
2022-09-10T14:02:10.905Z,18.73
2022-09-10T14:07:13.099Z,18.78
2022-09-10T14:12:11.417Z,18.74
2022-09-10T14:17:11.349Z,18.54
2022-09-10T14:22:09.513Z,18.43
2022-09-10T14:27:18.472Z,18.46
2022-09-10T14:32:28.182Z,18.66
2022-09-10T14:37:37.763Z,18.91
2022-09-10T14:42:36.125Z,18.92
2022-09-10T14:47:35.827Z,18.82
2022-09-10T14:52:29.012Z,18.87
2022-09-10T14:57:23.309Z,18.83
2022-09-10T15:02:22.876Z,18.97
2022-09-10T15:07:17.511Z,18.93
2022-09-10T15:12:19.574Z,19.02
2022-09-10T15:17:15.815Z,18.96
2022-09-10T15:22:25.354Z,18.85
2022-09-10T15:27:19.073Z,18.76
2022-09-10T15:32:12.603Z,18.81
2022-09-10T15:37:06.175Z,18.77
2022-09-10T15:42:00.920Z,18.54
2022-09-10T15:46:54.149Z,18.37
2022-09-10T15:51:47.522Z,18.53
2022-09-10T15:56:41.126Z,18.45
2022-09-10T16:01:38.371Z,18.26
2022-09-10T16:06:36.036Z,18.16
2022-09-10T16:11:31.752Z,18.08
2022-09-10T16:16:27.350Z,18.01
2022-09-10T16:21:24.311Z,17.91
2022-09-10T16:26:21.709Z,17.82
2022-09-10T16:31:17.444Z,17.79
2022-09-10T16:36:12.563Z,17.59
2022-09-10T16:41:09.333Z,17.59
2022-09-10T16:46:03.581Z,17.63
2022-09-10T16:51:03.883Z,17.53
2022-09-10T16:56:01.799Z,17.36
2022-09-10T17:00:56.925Z,17.36
2022-09-10T17:05:53.143Z,17.29
2022-09-10T17:10:46.642Z,17.33
2022-09-10T17:15:40.077Z,17.24
2022-09-10T17:20:49.937Z,17.18
2022-09-10T17:26:28.865Z,17.03
2022-09-10T17:31:22.585Z,16.98
2022-09-10T17:36:20.458Z,17.05
2022-09-10T17:41:14.567Z,16.92
2022-09-10T17:51:47.698Z,16.56
2022-09-10T17:56:41.961Z,16.48
2022-09-10T18:01:38.904Z,16.43
2022-09-10T18:06:36.064Z,16.24
2022-09-10T18:11:32.321Z,16.28
2022-09-10T18:16:28.942Z,16.21
2022-09-10T18:21:25.130Z,16.21
2022-09-10T18:26:22.325Z,16.29
2022-09-10T18:31:16.308Z,16.33
2022-09-10T18:36:14.939Z,16.38
2022-09-10T18:41:23.097Z,16.39
2022-09-10T18:46:16.814Z,16.42
2022-09-10T18:51:12.833Z,16.47
2022-09-10T18:56:11.086Z,16.52
2022-09-10T19:01:08.559Z,16.37
2022-09-10T19:06:06.321Z,16.37
2022-09-10T19:10:59.898Z,16.44
2022-09-10T19:15:56.390Z,16.38
2022-09-10T19:20:51.193Z,16.31
2022-09-10T19:25:56.111Z,16.24
2022-09-10T19:30:50.015Z,16.20
2022-09-10T19:35:44.186Z,16.37
2022-09-10T19:40:39.440Z,16.32
2022-09-10T19:45:33.231Z,16.42
2022-09-10T19:50:27.908Z,16.31
2022-09-10T19:55:21.224Z,16.23
2022-09-10T20:00:43.128Z,16.27
2022-09-10T20:05:34.064Z,16.26
2022-09-10T20:10:27.568Z,16.29
2022-09-10T20:15:22.153Z,16.40
2022-09-10T20:20:15.393Z,16.23
2022-09-10T20:25:09.400Z,16.28
2022-09-10T20:30:02.789Z,16.18
2022-09-10T20:34:57.387Z,16.17
2022-09-10T20:39:51.081Z,16.22
2022-09-10T20:44:44.704Z,16.14
2022-09-10T20:49:37.999Z,15.95
2022-09-10T20:54:32.593Z,15.82
2022-09-10T20:59:27.901Z,15.80
2022-09-10T21:04:21.976Z,15.85
2022-09-10T21:09:15.271Z,15.85
2022-09-10T21:14:11.403Z,15.85
2022-09-10T21:19:08.550Z,15.68
2022-09-10T21:24:04.820Z,15.50
2022-09-10T21:29:00.915Z,15.61
2022-09-10T21:34:02.395Z,15.75
2022-09-10T21:38:58.870Z,15.82
2022-09-10T21:43:52.196Z,15.70
2022-09-10T21:48:45.529Z,15.70
2022-09-10T21:53:41.105Z,15.59
2022-09-10T21:58:38.193Z,15.63
2022-09-10T22:03:33.690Z,15.56
2022-09-10T22:08:27.076Z,15.64
2022-09-10T22:13:22.221Z,15.69
2022-09-10T22:18:15.766Z,15.65
2022-09-10T22:23:09.003Z,15.71
2022-09-10T22:28:02.681Z,15.64
2022-09-10T22:32:59.253Z,15.67
2022-09-10T22:37:57.091Z,15.62
2022-09-10T22:42:50.360Z,15.56
2022-09-10T22:47:43.594Z,15.55
2022-09-10T22:52:38.289Z,15.42
2022-09-10T22:57:31.719Z,15.41
2022-09-10T23:02:25.004Z,15.40
2022-09-10T23:07:18.277Z,15.51
2022-09-10T23:12:13.072Z,15.31
2022-09-10T23:17:06.337Z,15.34
2022-09-10T23:21:59.556Z,15.27
2022-09-10T23:26:54.220Z,15.45
2022-09-10T23:31:48.908Z,15.34
2022-09-10T23:36:45.751Z,15.32
2022-09-10T23:41:39.151Z,15.33
2022-09-10T23:46:33.028Z,15.18
2022-09-10T23:51:28.345Z,15.31
2022-09-10T23:56:25.653Z,15.24
